createdAt,value
2019-04-21T00:00:33.561Z,62.30
2019-04-21T00:03:13.166Z,62.20
2019-04-21T00:05:58.943Z,63.30
2019-04-21T00:08:41.596Z,63.60
2019-04-21T00:11:10.785Z,63.20
2019-04-21T00:13:31.325Z,62.80
2019-04-21T00:15:53.185Z,63.40
2019-04-21T00:18:20.989Z,63.40
2019-04-21T00:20:54.670Z,63.30
2019-04-21T00:23:37.482Z,63.80
2019-04-21T00:26:01.398Z,63.50
2019-04-21T00:28:42.365Z,64.60
2019-04-21T00:31:09.872Z,64.40
2019-04-21T00:33:28.012Z,63.60
2019-04-21T00:35:59.919Z,64.50
2019-04-21T00:38:49.084Z,64.10
2019-04-21T00:41:13.243Z,64.60
2019-04-21T00:43:38.905Z,63.10
2019-04-21T00:46:04.813Z,62.00
2019-04-21T00:48:47.569Z,63.00
2019-04-21T00:51:40.705Z,63.40
2019-04-21T00:54:06.905Z,63.70
2019-04-21T00:56:27.661Z,63.90
2019-04-21T00:58:59.864Z,65.00
2019-04-21T01:01:37.898Z,64.30
2019-04-21T01:04:10.137Z,64.20
2019-04-21T01:06:42.906Z,67.10
2019-04-21T01:09:02.676Z,67.60
2019-04-21T01:11:47.364Z,67.40
2019-04-21T01:14:12.027Z,67.00
2019-04-21T01:16:49.813Z,66.90
2019-04-21T01:19:12.107Z,67.70
2019-04-21T01:21:24.136Z,68.70
2019-04-21T01:23:55.698Z,69.20
2019-04-21T01:26:33.804Z,68.40
2019-04-21T01:29:11.925Z,69.30
2019-04-21T01:31:48.247Z,68.70
2019-04-21T01:34:20.633Z,67.90
2019-04-21T01:36:52.944Z,68.30
2019-04-21T01:39:30.813Z,69.60
2019-04-21T01:41:59.102Z,70.20
2019-04-21T01:44:38.768Z,70.70
2019-04-21T01:46:51.968Z,71.80
2019-04-21T01:49:19.194Z,72.50
2019-04-21T01:52:10.818Z,71.80
2019-04-21T01:54:43.551Z,71.50
2019-04-21T01:57:12.343Z,72.10
2019-04-21T01:59:39.576Z,72.20
2019-04-21T02:02:16.004Z,72.30
2019-04-21T02:04:52.277Z,72.70
2019-04-21T02:07:14.859Z,72.70
2019-04-21T02:09:49.211Z,72.80
2019-04-21T02:12:19.959Z,72.80
2019-04-21T02:15:06.298Z,72.90
2019-04-21T02:17:20.377Z,74.90
2019-04-21T02:19:46.213Z,75.60
2019-04-21T02:22:33.849Z,76.00
2019-04-21T02:24:58.041Z,75.20
2019-04-21T02:27:23.697Z,75.10
2019-04-21T02:29:55.154Z,75.10
2019-04-21T02:37:46.791Z,74.60
2019-04-21T02:40:11.569Z,74.70
2019-04-21T02:42:46.504Z,75.10
2019-04-21T02:45:17.096Z,75.70
2019-04-21T02:55:18.066Z,77.30
2019-04-21T02:57:59.412Z,79.60
2019-04-21T03:00:49.900Z,82.20
2019-04-21T03:06:15.411Z,82.10
2019-04-21T03:11:14.601Z,81.10
2019-04-21T03:14:01.048Z,80.40
2019-04-21T03:16:23.047Z,80.00
2019-04-21T03:19:01.846Z,79.40
2019-04-21T03:21:22.098Z,79.50
2019-04-21T03:23:53.638Z,79.20
2019-04-21T03:26:30.539Z,79.80
2019-04-21T03:28:54.542Z,80.40
2019-04-21T03:38:55.016Z,80.80
2019-04-21T03:41:32.257Z,81.20
2019-04-21T03:44:02.967Z,80.70
2019-04-21T03:49:04.954Z,80.30
2019-04-21T03:51:25.820Z,81.00
2019-04-21T03:54:07.872Z,80.60
2019-04-21T03:59:03.418Z,78.90
2019-04-21T04:01:50.979Z,80.50
2019-04-21T04:09:44.585Z,81.40
2019-04-21T04:12:26.392Z,81.80
2019-04-21T04:14:45.957Z,84.10
2019-04-21T04:19:44.785Z,84.90
2019-04-21T04:22:19.383Z,85.60
2019-04-21T04:25:07.894Z,86.80
2019-04-21T04:27:34.694Z,87.40
2019-04-21T04:29:50.683Z,87.50
2019-04-21T04:32:25.173Z,86.50
2019-04-21T04:35:02.135Z,85.30
2019-04-21T04:37:32.133Z,84.50
2019-04-21T04:40:10.675Z,84.40
2019-04-21T04:42:41.105Z,84.20
2019-04-21T04:45:28.266Z,85.20
2019-04-21T04:47:43.074Z,85.60
2019-04-21T04:50:15.399Z,86.10
2019-04-21T04:55:22.101Z,85.90
2019-04-21T04:57:59.117Z,86.00
2019-04-21T05:00:28.726Z,85.80
2019-04-21T05:02:56.420Z,84.90
2019-04-21T05:07:57.682Z,78.20
2019-04-21T05:10:29.509Z,74.10
2019-04-21T05:12:50.701Z,69.40
2019-04-21T05:15:23.419Z,65.50
2019-04-21T05:18:00.823Z,61.90
2019-04-21T05:20:24.022Z,58.20
2019-04-21T05:23:04.607Z,56.30
2019-04-21T05:25:23.386Z,53.80
2019-04-21T05:27:54.036Z,51.40
2019-04-21T05:30:45.465Z,49.20
2019-04-21T05:33:32.188Z,47.50
2019-04-21T05:36:20.438Z,45.30
2019-04-21T05:39:10.725Z,43.10
2019-04-21T05:41:34.644Z,40.60
2019-04-21T05:44:27.962Z,38.70
2019-04-21T05:47:01.156Z,38.10
2019-04-21T05:49:29.556Z,38.00
2019-04-21T05:52:00.368Z,36.00
2019-04-21T05:57:05.987Z,38.90
2019-04-21T05:59:39.999Z,39.10
2019-04-21T06:02:18.573Z,39.10
2019-04-21T06:05:07.190Z,38.60
2019-04-21T06:07:23.068Z,38.60
2019-04-21T06:12:38.194Z,41.20
2019-04-21T06:15:03.824Z,42.60
2019-04-21T06:17:36.853Z,41.30
2019-04-21T06:20:10.350Z,35.80
2019-04-21T06:22:50.654Z,32.40
2019-04-21T06:25:45.580Z,30.00
2019-04-21T06:28:30.556Z,33.60
2019-04-21T06:33:39.219Z,28.20
2019-04-21T06:36:23.994Z,28.70
2019-04-21T06:38:59.503Z,29.20
2019-04-21T06:51:38.964Z,34.80
2019-04-21T06:54:23.921Z,34.00
2019-04-21T06:57:22.086Z,36.00
2019-04-21T06:59:09.395Z,32.60
2019-04-21T07:07:04.600Z,31.70
2019-04-21T07:09:52.829Z,33.90
2019-04-21T07:12:19.178Z,38.50
2019-04-21T07:14:52.741Z,35.00
2019-04-21T07:17:24.345Z,35.80
2019-04-21T07:19:57.423Z,34.80
2019-04-21T07:22:24.947Z,33.00
2019-04-21T07:25:00.415Z,35.40
2019-04-21T07:27:30.186Z,37.30
2019-04-21T07:29:58.543Z,38.70
2019-04-21T07:32:50.055Z,39.40
2019-04-21T07:35:06.034Z,38.00
2019-04-21T07:37:30.511Z,35.80
2019-04-21T07:40:07.906Z,32.60
2019-04-21T07:42:35.519Z,31.00
2019-04-21T07:45:05.129Z,34.80
2019-04-21T07:47:39.539Z,35.10
2019-04-21T07:50:14.871Z,35.90
2019-04-21T07:57:44.092Z,34.80
2019-04-21T08:00:29.358Z,35.50
2019-04-21T08:02:53.983Z,37.80
2019-04-21T08:05:26.181Z,36.20
2019-04-21T08:07:55.826Z,32.50
2019-04-21T08:10:31.290Z,30.80
2019-04-21T08:12:54.315Z,30.90
2019-04-21T08:15:44.220Z,35.00
2019-04-21T08:17:59.595Z,35.10
2019-04-21T08:20:28.522Z,33.90
2019-04-21T08:23:06.235Z,35.30
2019-04-21T08:25:35.251Z,33.00
2019-04-21T08:28:05.723Z,36.10
2019-04-21T08:30:47.822Z,35.10
2019-04-21T08:33:19.134Z,31.70
2019-04-21T08:38:10.363Z,31.40
2019-04-21T08:40:40.744Z,30.10
2019-04-21T08:43:12.629Z,29.90
2019-04-21T08:45:41.519Z,29.30
2019-04-21T08:48:10.566Z,29.60
2019-04-21T08:50:41.564Z,27.60
2019-04-21T08:53:32.027Z,31.20
2019-04-21T08:55:58.688Z,31.10
2019-04-21T09:01:06.079Z,28.80
2019-04-21T09:03:44.726Z,28.40
2019-04-21T09:06:22.541Z,31.20
2019-04-21T09:08:45.760Z,29.70
2019-04-21T09:11:12.665Z,30.40
2019-04-21T09:13:50.399Z,31.70
2019-04-21T09:16:18.803Z,33.70
2019-04-21T09:18:45.642Z,33.30
2019-04-21T09:21:22.488Z,33.00
2019-04-21T09:23:54.281Z,29.60
2019-04-21T09:26:25.233Z,28.40
2019-04-21T09:28:44.770Z,27.90
2019-04-21T09:31:05.302Z,28.60
2019-04-21T09:33:46.754Z,28.40
2019-04-21T09:36:14.314Z,31.00
2019-04-21T09:38:42.419Z,33.70
2019-04-21T09:41:15.487Z,31.90
2019-04-21T09:43:46.820Z,30.70
2019-04-21T09:46:11.826Z,32.60
2019-04-21T09:48:50.104Z,34.50
2019-04-21T09:51:11.179Z,34.50
2019-04-21T09:53:43.227Z,33.80
2019-04-21T09:56:14.754Z,32.50
2019-04-21T09:58:46.159Z,30.00
2019-04-21T10:01:22.775Z,30.90
2019-04-21T10:03:52.179Z,30.70
2019-04-21T10:06:19.132Z,33.70
2019-04-21T10:08:51.551Z,35.70
2019-04-21T10:11:20.760Z,35.90
2019-04-21T10:13:48.826Z,35.80
2019-04-21T10:16:36.389Z,35.70
2019-04-21T10:19:05.108Z,36.40
2019-04-21T10:21:36.402Z,36.30
2019-04-21T10:24:06.283Z,36.70
2019-04-21T10:26:35.591Z,36.00
2019-04-21T10:29:11.524Z,36.70
2019-04-21T10:31:34.962Z,38.00
2019-04-21T10:34:09.425Z,37.30
2019-04-21T10:36:39.057Z,36.20
2019-04-21T10:39:07.828Z,37.90
2019-04-21T10:41:37.339Z,36.40
2019-04-21T10:44:07.237Z,38.00
2019-04-21T10:46:36.906Z,38.70
2019-04-21T10:49:06.454Z,37.90
2019-04-21T10:51:35.250Z,36.40
2019-04-21T10:54:04.082Z,34.90
2019-04-21T10:56:37.975Z,34.70
2019-04-21T10:59:03.005Z,35.50
2019-04-21T11:01:38.907Z,33.80
2019-04-21T11:04:23.591Z,35.00
2019-04-21T11:06:48.818Z,36.70
2019-04-21T11:09:17.886Z,35.90
2019-04-21T11:11:49.563Z,35.90
2019-04-21T11:14:17.802Z,35.70
2019-04-21T11:16:48.018Z,35.80
2019-04-21T11:19:17.979Z,35.60
2019-04-21T11:21:47.095Z,35.20
2019-04-21T11:24:16.260Z,33.90
2019-04-21T11:26:47.631Z,33.10
2019-04-21T11:29:17.080Z,33.80
2019-04-21T11:31:47.208Z,34.40
2019-04-21T11:34:16.161Z,34.00
2019-04-21T11:36:48.063Z,33.60
2019-04-21T11:39:29.437Z,32.00
2019-04-21T11:41:49.823Z,32.30
2019-04-21T11:44:21.482Z,33.90
2019-04-21T11:46:49.024Z,33.10
2019-04-21T11:49:17.955Z,31.80
2019-04-21T11:51:46.980Z,32.80
2019-04-21T11:54:16.956Z,36.80
2019-04-21T11:56:45.748Z,33.90
2019-04-21T11:59:15.531Z,32.50
2019-04-21T12:01:45.578Z,30.90
2019-04-21T12:04:15.968Z,29.90
2019-04-21T12:06:47.625Z,30.70
2019-04-21T12:09:15.070Z,29.50
2019-04-21T12:11:45.218Z,31.10
2019-04-21T12:14:19.993Z,30.30
2019-04-21T12:16:48.799Z,29.60
2019-04-21T12:19:18.665Z,29.20
2019-04-21T12:21:58.884Z,29.40
2019-04-21T12:24:17.669Z,29.20
2019-04-21T12:26:46.497Z,28.50
2019-04-21T12:29:16.542Z,28.40
2019-04-21T12:32:05.670Z,28.60
2019-04-21T12:34:34.449Z,28.90
2019-04-21T12:37:04.503Z,28.30
2019-04-21T12:39:34.769Z,29.90
2019-04-21T12:42:04.669Z,30.90
2019-04-21T12:44:33.633Z,28.70
2019-04-21T12:47:03.614Z,29.90
2019-04-21T12:49:33.611Z,29.10
2019-04-21T12:52:03.737Z,30.20
2019-04-21T12:54:33.363Z,29.00
2019-04-21T12:57:03.366Z,27.70
2019-04-21T12:59:32.895Z,28.10
2019-04-21T13:02:03.272Z,29.50
2019-04-21T13:04:33.568Z,30.00
2019-04-21T13:07:03.670Z,30.00
2019-04-21T13:09:33.841Z,28.50
2019-04-21T13:12:02.763Z,27.80
2019-04-21T13:14:31.613Z,28.10
2019-04-21T13:17:01.354Z,26.80
2019-04-21T13:19:31.416Z,28.40
2019-04-21T13:22:01.443Z,28.40
2019-04-21T13:24:31.706Z,29.40
2019-04-21T13:27:03.223Z,27.90
2019-04-21T13:29:32.214Z,27.90
2019-04-21T13:32:08.778Z,28.10
2019-04-21T13:34:37.920Z,28.00
2019-04-21T13:37:09.818Z,27.40
2019-04-21T13:40:09.683Z,28.10
2019-04-21T13:42:31.439Z,28.50
2019-04-21T13:44:59.245Z,27.50
2019-04-21T13:47:28.255Z,27.00
2019-04-21T13:49:59.897Z,28.30
2019-04-21T13:52:28.904Z,28.80
2019-04-21T13:54:57.930Z,28.00
2019-04-21T13:57:32.525Z,27.70
2019-04-21T14:00:01.436Z,27.90
2019-04-21T14:02:30.953Z,27.60
2019-04-21T14:05:01.108Z,27.10
2019-04-21T14:07:30.374Z,27.10
2019-04-21T14:10:03.347Z,27.20
2019-04-21T14:12:29.708Z,26.80
2019-04-21T14:14:59.996Z,27.90
2019-04-21T14:17:28.898Z,25.70
2019-04-21T14:19:57.555Z,27.00
2019-04-21T14:22:26.810Z,26.00
2019-04-21T14:24:56.273Z,26.00
2019-04-21T14:27:26.227Z,25.10
2019-04-21T14:29:55.758Z,25.80
2019-04-21T14:32:24.579Z,25.00
2019-04-21T14:34:54.068Z,25.20
2019-04-21T14:37:22.886Z,26.10
2019-04-21T14:39:59.847Z,25.80
2019-04-21T14:42:22.175Z,26.20
2019-04-21T14:44:51.184Z,25.60
2019-04-21T14:47:40.015Z,26.10
2019-04-21T14:50:28.177Z,26.20
2019-04-21T14:53:07.754Z,26.30
2019-04-21T14:55:39.408Z,25.00
2019-04-21T14:58:09.436Z,25.50
2019-04-21T15:00:55.710Z,25.60
2019-04-21T15:03:25.824Z,25.50
2019-04-21T15:05:55.738Z,25.80
2019-04-21T15:08:25.008Z,26.20
2019-04-21T15:10:56.962Z,26.20
2019-04-21T15:13:25.917Z,26.60
2019-04-21T15:15:56.150Z,26.30
2019-04-21T15:18:26.103Z,25.60
2019-04-21T15:20:55.287Z,26.20
2019-04-21T15:23:26.375Z,26.70
2019-04-21T15:25:54.383Z,25.90
2019-04-21T15:28:23.129Z,26.50
2019-04-21T15:30:52.412Z,26.90
2019-04-21T15:33:22.295Z,26.60
2019-04-21T15:35:51.271Z,26.40
2019-04-21T15:38:20.163Z,26.30
2019-04-21T15:40:56.065Z,26.50
2019-04-21T15:43:22.389Z,26.10
2019-04-21T15:45:51.093Z,26.40
2019-04-21T15:48:20.202Z,26.10
2019-04-21T15:50:50.316Z,25.90
2019-04-21T15:53:21.631Z,26.00
2019-04-21T15:55:52.882Z,25.80
2019-04-21T15:58:24.520Z,25.80
2019-04-21T16:00:58.580Z,26.00
2019-04-21T16:03:28.923Z,26.40
2019-04-21T16:05:59.292Z,25.60
2019-04-21T16:08:29.029Z,25.70
2019-04-21T16:11:02.013Z,25.60
2019-04-21T16:13:28.093Z,26.30
2019-04-21T16:15:58.675Z,25.90
2019-04-21T16:18:27.980Z,26.10
2019-04-21T16:20:57.766Z,26.90
2019-04-21T16:23:26.663Z,26.80
2019-04-21T16:25:56.918Z,26.50
2019-04-21T16:28:26.855Z,25.90
2019-04-21T16:30:56.223Z,26.30
2019-04-21T16:33:25.162Z,28.60
2019-04-21T16:35:53.893Z,27.40
2019-04-21T16:38:23.678Z,27.30
2019-04-21T16:40:57.728Z,27.90
2019-04-21T16:43:22.912Z,27.40
2019-04-21T16:45:52.901Z,26.90
2019-04-21T16:48:21.615Z,27.50
2019-04-21T16:50:50.223Z,28.80
2019-04-21T16:53:35.611Z,28.20
2019-04-21T16:56:06.944Z,28.50
2019-04-21T16:58:38.856Z,29.10
2019-04-21T17:01:15.921Z,29.50
2019-04-21T17:03:42.552Z,28.30
2019-04-21T17:06:11.355Z,29.80
2019-04-21T17:08:40.928Z,29.80
2019-04-21T17:11:17.557Z,28.80
2019-04-21T17:13:40.094Z,28.90
2019-04-21T17:16:36.474Z,29.20
2019-04-21T17:18:51.353Z,28.60
2019-04-21T17:21:11.104Z,28.70
2019-04-21T17:23:41.158Z,28.60
2019-04-21T17:26:11.022Z,28.70
2019-04-21T17:28:40.653Z,29.30
2019-04-21T17:31:10.831Z,29.00
2019-04-21T17:33:39.659Z,29.50
2019-04-21T17:36:09.240Z,29.80
2019-04-21T17:38:37.927Z,29.40
2019-04-21T17:41:19.384Z,29.80
2019-04-21T17:43:37.425Z,29.60
2019-04-21T17:46:09.243Z,30.00
2019-04-21T17:48:40.628Z,29.60
2019-04-21T17:51:11.842Z,29.80
2019-04-21T17:54:00.710Z,30.10
2019-04-21T17:56:55.122Z,30.60
2019-04-21T17:59:28.190Z,30.50
2019-04-21T18:01:53.359Z,30.90
2019-04-21T18:04:18.365Z,31.10
2019-04-21T18:07:02.406Z,31.30
2019-04-21T18:09:47.095Z,31.00
2019-04-21T18:12:08.049Z,31.50
2019-04-21T18:14:22.312Z,32.50
2019-04-21T18:16:53.323Z,33.00
2019-04-21T18:19:27.780Z,32.90
2019-04-21T18:22:03.018Z,33.20
2019-04-21T18:24:40.709Z,33.50
2019-04-21T18:27:05.678Z,33.80
2019-04-21T18:29:33.945Z,34.20
2019-04-21T18:32:02.910Z,34.30
2019-04-21T18:34:42.822Z,33.90
2019-04-21T18:37:34.297Z,34.60
2019-04-21T18:40:06.888Z,35.50
2019-04-21T18:43:30.814Z,35.90
2019-04-21T18:46:11.563Z,36.60
2019-04-21T18:48:31.544Z,37.50
2019-04-21T18:51:10.508Z,37.80
2019-04-21T18:53:57.213Z,39.00
2019-04-21T18:56:20.871Z,40.50
2019-04-21T18:58:56.343Z,40.60
2019-04-21T19:01:29.323Z,42.10
2019-04-21T19:04:05.388Z,41.80
2019-04-21T19:06:51.702Z,41.50
2019-04-21T19:09:35.927Z,41.90
2019-04-21T19:12:05.207Z,41.70
2019-04-21T19:17:29.095Z,42.90
2019-04-21T19:19:44.154Z,43.10
2019-04-21T19:22:04.632Z,44.10
2019-04-21T19:24:55.625Z,44.10
2019-04-21T19:27:45.508Z,46.20
2019-04-21T19:30:33.241Z,46.20
2019-04-21T19:32:55.841Z,46.80
2019-04-21T19:35:11.109Z,47.80
2019-04-21T19:37:55.180Z,46.50
2019-04-21T19:40:37.024Z,47.90
2019-04-21T19:43:07.007Z,48.70
2019-04-21T19:45:39.657Z,48.50
2019-04-21T19:48:18.171Z,48.40
2019-04-21T19:50:50.245Z,48.90
2019-04-21T19:53:32.908Z,50.10
2019-04-21T19:55:47.898Z,48.50
2019-04-21T19:58:31.226Z,49.10
2019-04-21T20:00:59.727Z,49.10
2019-04-21T20:03:36.687Z,49.10
2019-04-21T20:06:16.890Z,51.80
2019-04-21T20:08:56.439Z,50.60
2019-04-21T20:11:23.834Z,52.00
2019-04-21T20:14:44.802Z,52.30
2019-04-21T20:16:42.789Z,50.90
2019-04-21T20:19:01.451Z,51.10
2019-04-21T20:21:31.411Z,52.20
2019-04-21T20:24:06.144Z,52.50
2019-04-21T20:27:04.714Z,52.00
2019-04-21T20:29:44.737Z,53.00
2019-04-21T20:32:21.690Z,53.30
2019-04-21T20:34:50.943Z,53.40
2019-04-21T20:37:19.122Z,54.20
2019-04-21T20:39:45.590Z,52.60
2019-04-21T20:42:24.932Z,53.30
2019-04-21T20:45:38.393Z,53.10
2019-04-21T20:48:10.468Z,53.00
2019-04-21T20:51:00.330Z,51.40
2019-04-21T20:53:31.317Z,50.00
2019-04-21T20:55:53.081Z,49.80
2019-04-21T20:58:34.203Z,49.60
2019-04-21T21:01:25.705Z,49.60
2019-04-21T21:03:45.828Z,49.40
2019-04-21T21:06:16.103Z,49.80
2019-04-21T21:08:50.396Z,49.50
2019-04-21T21:11:23.126Z,49.80
2019-04-21T21:13:59.203Z,50.10
2019-04-21T21:16:41.897Z,50.20
2019-04-21T21:19:23.912Z,50.50
2019-04-21T21:21:45.919Z,49.50
2019-04-21T21:24:22.233Z,49.50
2019-04-21T21:26:58.160Z,49.80
2019-04-21T21:29:31.456Z,49.90
2019-04-21T21:32:08.531Z,50.20
2019-04-21T21:34:41.158Z,50.80
2019-04-21T21:37:21.185Z,51.50
2019-04-21T21:39:55.102Z,51.10
2019-04-21T21:42:07.590Z,49.50
2019-04-21T21:44:40.754Z,49.10
2019-04-21T21:47:32.139Z,49.10
2019-04-21T21:49:57.825Z,48.90
2019-04-21T21:52:29.758Z,48.70
2019-04-21T21:54:49.803Z,49.00
2019-04-21T21:57:26.426Z,48.90
2019-04-21T22:00:04.674Z,48.60
2019-04-21T22:02:43.798Z,48.30
2019-04-21T22:05:16.049Z,48.10
2019-04-21T22:07:49.888Z,49.50
2019-04-21T22:10:25.265Z,49.80
2019-04-21T22:13:03.016Z,51.00
2019-04-21T22:15:33.808Z,49.60
2019-04-21T22:18:27.335Z,50.00
2019-04-21T22:20:56.488Z,50.60
2019-04-21T22:23:26.067Z,50.80
2019-04-21T22:25:51.483Z,51.40
2019-04-21T22:28:25.526Z,52.00
2019-04-21T22:30:56.885Z,51.40
2019-04-21T22:33:38.662Z,51.40
2019-04-21T22:36:23.369Z,52.00
2019-04-21T22:38:51.875Z,52.70
2019-04-21T22:41:25.386Z,52.60
2019-04-21T22:43:51.640Z,52.90
2019-04-21T22:46:24.462Z,53.50
2019-04-21T22:49:00.909Z,53.50
2019-04-21T22:51:38.326Z,54.10
2019-04-21T22:54:12.775Z,55.80
2019-04-21T22:56:50.461Z,55.80
2019-04-21T22:59:20.963Z,56.30
2019-04-21T23:01:51.905Z,57.00
2019-04-21T23:04:36.820Z,56.20
2019-04-21T23:07:10.042Z,56.10
2019-04-21T23:09:56.078Z,56.40
2019-04-21T23:12:29.685Z,57.40
2019-04-21T23:15:13.034Z,58.60
2019-04-21T23:17:54.232Z,59.00
2019-04-21T23:20:29.734Z,58.00
2019-04-21T23:23:05.075Z,58.30
2019-04-21T23:25:31.800Z,59.40
2019-04-21T23:28:09.150Z,58.60
2019-04-21T23:30:52.932Z,58.70
2019-04-21T23:33:04.960Z,57.90
2019-04-21T23:36:19.605Z,59.30
2019-04-21T23:38:50.102Z,60.80
2019-04-21T23:41:17.369Z,60.80
2019-04-21T23:43:55.396Z,60.70
2019-04-21T23:46:34.706Z,61.60
2019-04-21T23:49:20.098Z,62.50
2019-04-21T23:51:45.295Z,61.90
2019-04-21T23:54:15.684Z,62.60
2019-04-21T23:56:47.614Z,63.30
2019-04-21T23:59:17.994Z,63.70
